KMUO/MUO METAR and TAF weather

Enter ICAO airport designator
Station Type Date Time Source
KMUO METAR 2019/10/15 07:58 UTC NOAA

KMUO 150758Z AUTO 00000KT 10SM HZ CLR 03/M03 A3014 RMK AO2 SLP207 T00311033 $


Station Type Date Time Source
KMUO Decoded METAR 2019/10/15 07:58 UTC NOAA

Mountain Home Air Force Base, ID, United States (KMUO) 43-03N 115-52W
Oct 15, 2019 - 03:58 AM EDT / 2019.10.15 0758 UTC
Wind: Calm:0
Visibility: 10 mile(s):0
Sky conditions: clear
Weather: haze
Temperature: 37.6 F (3.1 C)
Dew Point: 26.1 F (-3.3 C)
Relative Humidity: 62%
Pressure (altimeter): 30.14 in. Hg (1020 hPa)
ob: KMUO 150758Z AUTO 00000KT 10SM HZ CLR 03/M03 A3014 RMK AO2 SLP207 T00311033
cycle: 8

Station Type Date Time Source
KMUO TAF 2019/10/11 18:04 UTC NOAA

TAF KMUO 111800Z 1118/1224 12012G18KT 9999 FEW200 QNH3028INS
BECMG 1121/1122 11012KT 9999 SKC QNH3019INS
BECMG 1201/1202 11009KT 9999 SKC QNH3016INS
BECMG 1214/1215 12012KT 9999 SKC QNH2996INS TX14/1122Z TNM04/1212Z LAST NO
AMDS AFT 1118 NEXT 1500

Example: see airport list